sensor_id;sensor_type;location;lat;lon;timestamp;pressure;altitude;pressure_sealevel;temperature;humidity
54666;BME280;40566;50.006;36.180;2023-04-19T00:03:48;99808.59;;;11.28;45.64
54666;BME280;40566;50.006;36.180;2023-04-19T00:08:48;99803.28;;;11.33;45.62
54666;BME280;40566;50.006;36.180;2023-04-19T00:13:49;99803.28;;;11.33;45.70
54666;BME280;40566;50.006;36.180;2023-04-19T00:18:50;99793.91;;;11.29;45.80
54666;BME280;40566;50.006;36.180;2023-04-19T00:23:51;99787.00;;;11.29;45.78
54666;BME280;40566;50.006;36.180;2023-04-19T00:28:53;99788.78;;;11.27;45.82
54666;BME280;40566;50.006;36.180;2023-04-19T00:33:55;99795.69;;;11.27;46.06
54666;BME280;40566;50.006;36.180;2023-04-19T00:38:55;99790.63;;;11.24;46.27
54666;BME280;40566;50.006;36.180;2023-04-19T00:43:56;99789.84;;;11.22;46.37
54666;BME280;40566;50.006;36.180;2023-04-19T00:48:57;99788.13;;;11.21;46.27
54666;BME280;40566;50.006;36.180;2023-04-19T00:53:58;99777.81;;;11.19;46.27
54666;BME280;40566;50.006;36.180;2023-04-19T00:58:59;99784.66;;;11.22;46.08
54666;BME280;40566;50.006;36.180;2023-04-19T01:04:00;99778.59;;;11.21;46.33
54666;BME280;40566;50.006;36.180;2023-04-19T01:09:01;99783.78;;;11.21;46.40
54666;BME280;40566;50.006;36.180;2023-04-19T01:14:01;99783.06;;;11.18;46.61
54666;BME280;40566;50.006;36.180;2023-04-19T01:19:02;99776.16;;;11.17;46.52
54666;BME280;40566;50.006;36.180;2023-04-19T01:24:03;99772.53;;;11.22;46.41
54666;BME280;40566;50.006;36.180;2023-04-19T01:29:03;99769.84;;;11.25;46.58
54666;BME280;40566;50.006;36.180;2023-04-19T01:34:04;99778.47;;;11.26;46.51
54666;BME280;40566;50.006;36.180;2023-04-19T01:39:05;99768.13;;;11.26;46.20
54666;BME280;40566;50.006;36.180;2023-04-19T01:44:06;99765.53;;;11.26;46.51
54666;BME280;40566;50.006;36.180;2023-04-19T01:49:07;99767.34;;;11.24;46.69
54666;BME280;40566;50.006;36.180;2023-04-19T01:54:08;99763.38;;;11.12;46.78
54666;BME280;40566;50.006;36.180;2023-04-19T01:59:08;99773.75;;;11.10;46.68
54666;BME280;40566;50.006;36.180;2023-04-19T02:04:09;99773.84;;;11.07;46.98
54666;BME280;40566;50.006;36.180;2023-04-19T02:09:10;99768.75;;;11.04;47.06
54666;BME280;40566;50.006;36.180;2023-04-19T02:14:10;99774.81;;;11.03;47.29
54666;BME280;40566;50.006;36.180;2023-04-19T02:19:11;99777.44;;;11.02;47.41
54666;BME280;40566;50.006;36.180;2023-04-19T02:24:11;99776.72;;;10.98;47.51
54666;BME280;40566;50.006;36.180;2023-04-19T02:29:12;99775.97;;;10.93;47.84
54666;BME280;40566;50.006;36.180;2023-04-19T02:34:13;99774.38;;;10.89;48.07
54666;BME280;40566;50.006;36.180;2023-04-19T02:39:14;99790.78;;;10.88;48.43
54666;BME280;40566;50.006;36.180;2023-04-19T02:44:14;99786.56;;;10.85;48.85
54666;BME280;40566;50.006;36.180;2023-04-19T02:49:15;99792.81;;;10.78;49.23
54666;BME280;40566;50.006;36.180;2023-04-19T02:54:16;99791.25;;;10.73;49.65
54666;BME280;40566;50.006;36.180;2023-04-19T02:59:16;99799.09;;;10.68;50.09
54666;BME280;40566;50.006;36.180;2023-04-19T03:04:17;99807.97;;;10.59;50.82
54666;BME280;40566;50.006;36.180;2023-04-19T03:09:17;99785.47;;;10.63;51.18
54666;BME280;40566;50.006;36.180;2023-04-19T03:14:18;99790.44;;;10.70;51.19
54666;BME280;40566;50.006;36.180;2023-04-19T03:19:19;99792.25;;;10.67;51.80
54666;BME280;40566;50.006;36.180;2023-04-19T03:24:26;99776.00;;;10.62;52.57
54666;BME280;40566;50.006;36.180;2023-04-19T03:29:28;99792.34;;;10.62;52.89
54666;BME280;40566;50.006;36.180;2023-04-19T03:34:29;99794.00;;;10.66;53.17
54666;BME280;40566;50.006;36.180;2023-04-19T03:39:29;99786.91;;;10.73;53.17
54666;BME280;40566;50.006;36.180;2023-04-19T03:44:32;99766.03;;;10.79;53.15
54666;BME280;40566;50.006;36.180;2023-04-19T03:49:33;99790.22;;;10.78;53.15
54666;BME280;40566;50.006;36.180;2023-04-19T03:54:34;99783.31;;;10.79;53.29
54666;BME280;40566;50.006;36.180;2023-04-19T03:59:34;99775.72;;;10.73;53.18
54666;BME280;40566;50.006;36.180;2023-04-19T04:04:35;99772.44;;;10.66;53.31
54666;BME280;40566;50.006;36.180;2023-04-19T04:09:35;99771.03;;;10.54;53.78
54666;BME280;40566;50.006;36.180;2023-04-19T04:14:36;99767.09;;;10.41;54.43
54666;BME280;40566;50.006;36.180;2023-04-19T04:19:37;99769.13;;;10.28;55.27
54666;BME280;40566;50.006;36.180;2023-04-19T04:24:38;99746.16;;;10.17;55.78
54666;BME280;40566;50.006;36.180;2023-04-19T04:29:40;99757.47;;;10.11;56.56
54666;BME280;40566;50.006;36.180;2023-04-19T04:34:42;99751.59;;;10.05;57.32
54666;BME280;40566;50.006;36.180;2023-04-19T04:39:43;99757.84;;;9.98;57.94
54666;BME280;40566;50.006;36.180;2023-04-19T04:44:44;99772.34;;;10.03;58.08
54666;BME280;40566;50.006;36.180;2023-04-19T04:49:46;99774.97;;;10.02;58.65
54666;BME280;40566;50.006;36.180;2023-04-19T04:54:47;99778.22;;;10.08;59.01
54666;BME280;40566;50.006;36.180;2023-04-19T04:59:47;99785.94;;;10.10;59.38
54666;BME280;40566;50.006;36.180;2023-04-19T05:04:48;99778.84;;;10.18;59.44
54666;BME280;40566;50.006;36.180;2023-04-19T05:09:48;99772.75;;;10.21;60.07
54666;BME280;40566;50.006;36.180;2023-04-19T05:14:49;99774.56;;;10.17;60.44
54666;BME280;40566;50.006;36.180;2023-04-19T05:19:50;99774.59;;;10.16;60.70
54666;BME280;40566;50.006;36.180;2023-04-19T05:24:50;99784.09;;;10.15;61.24
54666;BME280;40566;50.006;36.180;2023-04-19T05:29:51;99781.53;;;10.15;61.41
54666;BME280;40566;50.006;36.180;2023-04-19T05:34:52;99799.69;;;10.12;61.77
54666;BME280;40566;50.006;36.180;2023-04-19T05:39:53;99798.72;;;10.16;61.83
54666;BME280;40566;50.006;36.180;2023-04-19T05:44:53;99798.84;;;10.11;62.17
54666;BME280;40566;50.006;36.180;2023-04-19T05:49:54;99796.13;;;10.16;62.29
54666;BME280;40566;50.006;36.180;2023-04-19T05:54:57;99784.84;;;10.19;62.46
54666;BME280;40566;50.006;36.180;2023-04-19T05:59:57;99789.06;;;10.23;62.61
54666;BME280;40566;50.006;36.180;2023-04-19T06:04:58;99788.84;;;10.32;62.70
54666;BME280;40566;50.006;36.180;2023-04-19T06:09:59;99798.00;;;10.45;62.59
54666;BME280;40566;50.006;36.180;2023-04-19T06:14:59;99800.34;;;10.55;62.53
54666;BME280;40566;50.006;36.180;2023-04-19T06:20:00;99798.09;;;10.74;62.28
54666;BME280;40566;50.006;36.180;2023-04-19T06:25:01;99788.94;;;10.93;62.13
54666;BME280;40566;50.006;36.180;2023-04-19T06:30:03;99781.09;;;10.96;62.18
54666;BME280;40566;50.006;36.180;2023-04-19T06:35:05;99779.13;;;11.04;62.37
54666;BME280;40566;50.006;36.180;2023-04-19T06:40:06;99785.31;;;11.28;62.13
54666;BME280;40566;50.006;36.180;2023-04-19T06:45:08;99786.81;;;11.64;61.64
54666;BME280;40566;50.006;36.180;2023-04-19T06:50:09;99791.59;;;11.76;61.20
54666;BME280;40566;50.006;36.180;2023-04-19T06:55:10;99802.47;;;11.89;60.96
54666;BME280;40566;50.006;36.180;2023-04-19T07:00:11;99799.31;;;12.06;60.00
54666;BME280;40566;50.006;36.180;2023-04-19T07:05:13;99791.91;;;12.20;60.00
54666;BME280;40566;50.006;36.180;2023-04-19T07:10:14;99788.91;;;12.33;59.44
54666;BME280;40566;50.006;36.180;2023-04-19T07:15:14;99810.25;;;12.41;59.30
54666;BME280;40566;50.006;36.180;2023-04-19T07:20:16;99801.16;;;12.54;59.23
54666;BME280;40566;50.006;36.180;2023-04-19T07:25:16;99802.28;;;12.70;58.74
54666;BME280;40566;50.006;36.180;2023-04-19T07:30:17;99802.34;;;12.93;58.32
54666;BME280;40566;50.006;36.180;2023-04-19T07:35:18;99798.88;;;13.17;57.47
54666;BME280;40566;50.006;36.180;2023-04-19T07:40:18;99812.16;;;13.33;56.95
54666;BME280;40566;50.006;36.180;2023-04-19T07:45:19;99811.91;;;13.39;56.93
54666;BME280;40566;50.006;36.180;2023-04-19T07:50:20;99795.59;;;13.58;56.41
54666;BME280;40566;50.006;36.180;2023-04-19T07:55:20;99810.81;;;13.89;56.04
54666;BME280;40566;50.006;36.180;2023-04-19T08:00:21;99797.38;;;14.00;55.63
54666;BME280;40566;50.006;36.180;2023-04-19T08:05:22;99801.66;;;14.64;54.15
54666;BME280;40566;50.006;36.180;2023-04-19T08:10:23;99797.25;;;14.85;53.21
54666;BME280;40566;50.006;36.180;2023-04-19T08:15:23;99784.31;;;15.02;53.40
54666;BME280;40566;50.006;36.180;2023-04-19T08:20:24;99781.91;;;14.98;53.61
54666;BME280;40566;50.006;36.180;2023-04-19T08:25:25;99779.53;;;14.93;53.44
54666;BME280;40566;50.006;36.180;2023-04-19T08:30:27;99785.97;;;14.84;53.29
54666;BME280;40566;50.006;36.180;2023-04-19T08:35:28;99777.69;;;15.14;52.53
54666;BME280;40566;50.006;36.180;2023-04-19T08:40:29;99776.13;;;15.29;51.70
54666;BME280;40566;50.006;36.180;2023-04-19T08:45:31;99778.03;;;15.06;51.90
54666;BME280;40566;50.006;36.180;2023-04-19T08:50:32;99778.75;;;15.10;51.41
54666;BME280;40566;50.006;36.180;2023-04-19T08:55:35;99787.69;;;15.04;51.66
54666;BME280;40566;50.006;36.180;2023-04-19T09:00:38;99788.25;;;14.73;51.85
54666;BME280;40566;50.006;36.180;2023-04-19T09:05:39;99797.84;;;14.51;51.85
54666;BME280;40566;50.006;36.180;2023-04-19T09:10:51;99776.47;;;14.44;52.16
54666;BME280;40566;50.006;36.180;2023-04-19T09:15:52;99782.41;;;14.87;50.79
54666;BME280;40566;50.006;36.180;2023-04-19T09:20:53;99788.75;;;14.81;50.21
54666;BME280;40566;50.006;36.180;2023-04-19T09:25:58;99787.81;;;14.41;50.88
54666;BME280;40566;50.006;36.180;2023-04-19T09:31:10;99781.78;;;14.20;50.90
54666;BME280;40566;50.006;36.180;2023-04-19T09:36:43;99776.19;;;14.09;50.91
54666;BME280;40566;50.006;36.180;2023-04-19T09:41:51;99778.91;;;13.85;51.22
54666;BME280;40566;50.006;36.180;2023-04-19T09:46:52;99780.84;;;13.80;51.55
54666;BME280;40566;50.006;36.180;2023-04-19T09:51:56;99765.47;;;13.96;50.99
54666;BME280;40566;50.006;36.180;2023-04-19T09:56:56;99774.06;;;14.19;50.35
54666;BME280;40566;50.006;36.180;2023-04-19T10:01:58;99768.91;;;14.17;50.12
54666;BME280;40566;50.006;36.180;2023-04-19T10:07:00;99787.44;;;14.09;50.16
54666;BME280;40566;50.006;36.180;2023-04-19T10:12:01;99784.16;;;13.84;50.51
54666;BME280;40566;50.006;36.180;2023-04-19T10:17:02;99791.38;;;13.77;49.99
54666;BME280;40566;50.006;36.180;2023-04-19T10:22:05;99778.44;;;13.54;50.23
54666;BME280;40566;50.006;36.180;2023-04-19T10:27:09;99782.78;;;13.31;50.30
54666;BME280;40566;50.006;36.180;2023-04-19T10:32:14;99780.31;;;13.26;50.02
54666;BME280;40566;50.006;36.180;2023-04-19T10:37:15;99795.44;;;13.39;49.83
54666;BME280;40566;50.006;36.180;2023-04-19T10:42:16;99796.31;;;13.39;49.64
54666;BME280;40566;50.006;36.180;2023-04-19T10:47:43;99789.41;;;13.38;49.69
54666;BME280;40566;50.006;36.180;2023-04-19T10:52:43;99807.06;;;13.30;49.58
54666;BME280;40566;50.006;36.180;2023-04-19T10:58:04;99796.03;;;13.23;49.31
54666;BME280;40566;50.006;36.180;2023-04-19T11:03:50;99798.78;;;13.19;49.17
54666;BME280;40566;50.006;36.180;2023-04-19T11:08:51;99795.78;;;13.31;48.93
54666;BME280;40566;50.006;36.180;2023-04-19T11:13:55;99789.03;;;13.49;48.49
54666;BME280;40566;50.006;36.180;2023-04-19T11:18:57;99790.28;;;13.61;48.17
54666;BME280;40566;50.006;36.180;2023-04-19T11:24:10;99779.41;;;13.73;47.91
54666;BME280;40566;50.006;36.180;2023-04-19T11:29:12;99785.25;;;13.78;47.66
54666;BME280;40566;50.006;36.180;2023-04-19T11:34:13;99792.03;;;13.82;47.14
54666;BME280;40566;50.006;36.180;2023-04-19T11:39:14;99771.16;;;13.84;47.01
54666;BME280;40566;50.006;36.180;2023-04-19T11:44:17;99761.16;;;13.95;46.73
54666;BME280;40566;50.006;36.180;2023-04-19T11:49:29;99749.47;;;14.05;46.09
54666;BME280;40566;50.006;36.180;2023-04-19T11:54:30;99763.03;;;13.92;46.56
54666;BME280;40566;50.006;36.180;2023-04-19T11:59:32;99739.88;;;13.65;46.91
54666;BME280;40566;50.006;36.180;2023-04-19T12:04:34;99755.47;;;13.65;46.53
54666;BME280;40566;50.006;36.180;2023-04-19T12:09:35;99747.06;;;13.58;46.42
54666;BME280;40566;50.006;36.180;2023-04-19T12:14:36;99745.63;;;13.51;46.49
54666;BME280;40566;50.006;36.180;2023-04-19T12:19:42;99726.16;;;13.39;46.32
54666;BME280;40566;50.006;36.180;2023-04-19T12:24:43;99726.47;;;13.32;46.44
54666;BME280;40566;50.006;36.180;2023-04-19T12:29:44;99722.84;;;13.36;46.08
54666;BME280;40566;50.006;36.180;2023-04-19T12:34:45;99715.34;;;13.50;45.64
54666;BME280;40566;50.006;36.180;2023-04-19T12:39:46;99713.88;;;13.65;45.52
54666;BME280;40566;50.006;36.180;2023-04-19T12:44:46;99714.25;;;13.76;45.37
54666;BME280;40566;50.006;36.180;2023-04-19T12:49:47;99708.72;;;14.06;44.96
54666;BME280;40566;50.006;36.180;2023-04-19T12:54:47;99699.78;;;14.51;44.08
54666;BME280;40566;50.006;36.180;2023-04-19T12:59:48;99701.03;;;14.82;43.68
54666;BME280;40566;50.006;36.180;2023-04-19T13:04:49;99698.38;;;14.83;43.67
54666;BME280;40566;50.006;36.180;2023-04-19T13:09:50;99687.88;;;14.66;43.93
54666;BME280;40566;50.006;36.180;2023-04-19T13:14:50;99684.00;;;14.35;44.39
54666;BME280;40566;50.006;36.180;2023-04-19T13:19:51;99676.03;;;14.19;44.83
54666;BME280;40566;50.006;36.180;2023-04-19T13:24:52;99668.97;;;14.02;44.78
54666;BME280;40566;50.006;36.180;2023-04-19T13:29:57;99655.84;;;13.85;44.62
54666;BME280;40566;50.006;36.180;2023-04-19T13:34:58;99665.16;;;13.91;44.45
54666;BME280;40566;50.006;36.180;2023-04-19T13:39:58;99661.44;;;13.96;44.35
54666;BME280;40566;50.006;36.180;2023-04-19T13:45:27;99651.50;;;14.06;44.12
54666;BME280;40566;50.006;36.180;2023-04-19T13:50:28;99654.28;;;14.01;44.22
54666;BME280;40566;50.006;36.180;2023-04-19T13:55:28;99654.72;;;14.11;44.64
54666;BME280;40566;50.006;36.180;2023-04-19T14:00:29;99658.09;;;14.13;44.63
54666;BME280;40566;50.006;36.180;2023-04-19T14:05:30;99655.66;;;14.10;44.77
54666;BME280;40566;50.006;36.180;2023-04-19T14:10:30;99653.03;;;14.10;44.92
54666;BME280;40566;50.006;36.180;2023-04-19T14:15:31;99646.34;;;14.04;45.03
54666;BME280;40566;50.006;36.180;2023-04-19T14:20:32;99656.25;;;13.96;45.25
54666;BME280;40566;50.006;36.180;2023-04-19T14:25:32;99657.91;;;13.97;45.42
54666;BME280;40566;50.006;36.180;2023-04-19T14:30:33;99647.66;;;13.94;45.32
54666;BME280;40566;50.006;36.180;2023-04-19T14:35:33;99654.09;;;13.85;45.52
54666;BME280;40566;50.006;36.180;2023-04-19T14:40:34;99644.06;;;13.76;45.54
54666;BME280;40566;50.006;36.180;2023-04-19T14:45:35;99644.47;;;13.67;45.83
54666;BME280;40566;50.006;36.180;2023-04-19T14:50:35;99637.00;;;13.59;46.08
54666;BME280;40566;50.006;36.180;2023-04-19T14:55:37;99623.16;;;13.59;45.79
54666;BME280;40566;50.006;36.180;2023-04-19T15:00:37;99631.13;;;13.54;45.83
54666;BME280;40566;50.006;36.180;2023-04-19T15:05:38;99622.78;;;13.47;46.12
54666;BME280;40566;50.006;36.180;2023-04-19T15:10:38;99625.56;;;13.43;46.26
54666;BME280;40566;50.006;36.180;2023-04-19T15:15:39;99614.31;;;13.42;46.37
54666;BME280;40566;50.006;36.180;2023-04-19T15:20:41;99616.13;;;13.40;46.32
54666;BME280;40566;50.006;36.180;2023-04-19T15:25:42;99616.91;;;13.42;46.10
54666;BME280;40566;50.006;36.180;2023-04-19T15:30:44;99615.03;;;13.46;46.21
54666;BME280;40566;50.006;36.180;2023-04-19T15:35:44;99603.06;;;13.42;46.21
54666;BME280;40566;50.006;36.180;2023-04-19T15:40:45;99617.84;;;13.41;46.38
54666;BME280;40566;50.006;36.180;2023-04-19T15:45:46;99610.22;;;13.37;46.79
54666;BME280;40566;50.006;36.180;2023-04-19T15:50:46;99614.81;;;13.30;47.08
54666;BME280;40566;50.006;36.180;2023-04-19T15:55:47;99608.28;;;13.20;47.44
54666;BME280;40566;50.006;36.180;2023-04-19T16:00:48;99615.25;;;13.19;48.14
54666;BME280;40566;50.006;36.180;2023-04-19T16:05:48;99608.59;;;13.12;48.41
54666;BME280;40566;50.006;36.180;2023-04-19T16:10:52;99609.88;;;13.02;48.70
54666;BME280;40566;50.006;36.180;2023-04-19T16:15:52;99627.44;;;12.95;48.90
54666;BME280;40566;50.006;36.180;2023-04-19T16:20:53;99634.81;;;12.84;49.91
54666;BME280;40566;50.006;36.180;2023-04-19T16:25:55;99640.84;;;12.62;51.25
54666;BME280;40566;50.006;36.180;2023-04-19T16:30:56;99653.75;;;12.40;52.35
54666;BME280;40566;50.006;36.180;2023-04-19T16:35:56;99652.56;;;12.25;53.40
54666;BME280;40566;50.006;36.180;2023-04-19T16:40:57;99660.00;;;12.11;54.39
54666;BME280;40566;50.006;36.180;2023-04-19T16:45:59;99662.13;;;12.00;55.39
54666;BME280;40566;50.006;36.180;2023-04-19T16:51:01;99666.91;;;11.85;56.44
54666;BME280;40566;50.006;36.180;2023-04-19T16:56:01;99676.91;;;11.71;57.29
54666;BME280;40566;50.006;36.180;2023-04-19T17:01:03;99683.06;;;11.67;58.19
54666;BME280;40566;50.006;36.180;2023-04-19T17:06:03;99668.97;;;11.49;59.25
54666;BME280;40566;50.006;36.180;2023-04-19T17:11:05;99678.66;;;11.44;59.86
54666;BME280;40566;50.006;36.180;2023-04-19T17:16:06;99670.03;;;11.43;60.59
54666;BME280;40566;50.006;36.180;2023-04-19T17:21:07;99683.38;;;11.31;60.97
54666;BME280;40566;50.006;36.180;2023-04-19T17:26:07;99682.09;;;11.18;61.80
54666;BME280;40566;50.006;36.180;2023-04-19T17:31:08;99681.25;;;11.16;62.13
54666;BME280;40566;50.006;36.180;2023-04-19T17:36:09;99668.47;;;11.11;62.60
54666;BME280;40566;50.006;36.180;2023-04-19T17:41:09;99664.22;;;11.08;62.93
54666;BME280;40566;50.006;36.180;2023-04-19T17:46:15;99673.75;;;11.08;63.13
54666;BME280;40566;50.006;36.180;2023-04-19T17:51:18;99656.75;;;10.99;63.37
54666;BME280;40566;50.006;36.180;2023-04-19T17:56:18;99652.59;;;10.94;63.95
54666;BME280;40566;50.006;36.180;2023-04-19T18:01:19;99638.06;;;10.89;64.33
54666;BME280;40566;50.006;36.180;2023-04-19T18:06:22;99637.41;;;10.83;64.75
54666;BME280;40566;50.006;36.180;2023-04-19T18:11:23;99644.66;;;10.71;65.01
54666;BME280;40566;50.006;36.180;2023-04-19T18:16:25;99630.13;;;10.67;65.36
54666;BME280;40566;50.006;36.180;2023-04-19T18:21:25;99630.16;;;10.66;65.64
54666;BME280;40566;50.006;36.180;2023-04-19T18:26:35;99610.34;;;10.66;65.58
54666;BME280;40566;50.006;36.180;2023-04-19T18:31:37;99620.75;;;10.63;65.75
54666;BME280;40566;50.006;36.180;2023-04-19T18:36:38;99625.94;;;10.63;66.08
54666;BME280;40566;50.006;36.180;2023-04-19T18:41:38;99620.75;;;10.63;65.86
54666;BME280;40566;50.006;36.180;2023-04-19T18:46:39;99620.75;;;10.63;66.04
54666;BME280;40566;50.006;36.180;2023-04-19T18:51:39;99619.72;;;10.69;66.19
54666;BME280;40566;50.006;36.180;2023-04-19T18:56:41;99618.88;;;10.68;66.42
54666;BME280;40566;50.006;36.180;2023-04-19T19:01:42;99606.94;;;10.64;66.60
54666;BME280;40566;50.006;36.180;2023-04-19T19:06:45;99594.88;;;10.63;66.61
54666;BME280;40566;50.006;36.180;2023-04-19T19:11:46;99591.50;;;10.61;66.77
54666;BME280;40566;50.006;36.180;2023-04-19T19:17:14;99585.41;;;10.62;66.58
54666;BME280;40566;50.006;36.180;2023-04-19T19:22:16;99602.03;;;10.55;66.99
54666;BME280;40566;50.006;36.180;2023-04-19T19:27:17;99586.53;;;10.55;67.00
54666;BME280;40566;50.006;36.180;2023-04-19T19:32:18;99591.78;;;10.52;67.08
54666;BME280;40566;50.006;36.180;2023-04-19T19:37:20;99598.72;;;10.50;67.40
54666;BME280;40566;50.006;36.180;2023-04-19T19:42:21;99591.00;;;10.48;67.42
54666;BME280;40566;50.006;36.180;2023-04-19T19:47:23;99583.22;;;10.50;67.53
54666;BME280;40566;50.006;36.180;2023-04-19T19:52:27;99585.81;;;10.50;67.45
54666;BME280;40566;50.006;36.180;2023-04-19T19:57:31;99591.88;;;10.49;67.71
54666;BME280;40566;50.006;36.180;2023-04-19T20:02:34;99586.72;;;10.49;67.77
54666;BME280;40566;50.006;36.180;2023-04-19T20:07:40;99577.84;;;10.56;67.83
54666;BME280;40566;50.006;36.180;2023-04-19T20:12:42;99579.00;;;10.47;67.85
54666;BME280;40566;50.006;36.180;2023-04-19T20:17:43;99578.34;;;10.41;68.15
54666;BME280;40566;50.006;36.180;2023-04-19T20:22:45;99568.94;;;10.37;68.24
54666;BME280;40566;50.006;36.180;2023-04-19T20:27:48;99553.50;;;10.35;68.11
54666;BME280;40566;50.006;36.180;2023-04-19T20:32:49;99563.97;;;10.30;68.29
54666;BME280;40566;50.006;36.180;2023-04-19T20:37:49;99564.13;;;10.24;68.21
54666;BME280;40566;50.006;36.180;2023-04-19T20:42:50;99563.31;;;10.22;68.43
54666;BME280;40566;50.006;36.180;2023-04-19T20:47:51;99553.94;;;10.20;68.53
54666;BME280;40566;50.006;36.180;2023-04-19T20:52:53;99552.06;;;10.25;68.34
54666;BME280;40566;50.006;36.180;2023-04-19T20:57:54;99538.41;;;10.20;68.31
54666;BME280;40566;50.006;36.180;2023-04-19T21:02:57;99535.78;;;10.21;68.43
54666;BME280;40566;50.006;36.180;2023-04-19T21:07:58;99534.13;;;10.19;68.58
54666;BME280;40566;50.006;36.180;2023-04-19T21:12:58;99536.78;;;10.17;68.48
54666;BME280;40566;50.006;36.180;2023-04-19T21:17:59;99530.00;;;10.13;68.63
54666;BME280;40566;50.006;36.180;2023-04-19T21:23:00;99530.94;;;10.10;68.61
54666;BME280;40566;50.006;36.180;2023-04-19T21:28:01;99519.75;;;10.10;68.15
54666;BME280;40566;50.006;36.180;2023-04-19T21:33:02;99520.72;;;10.06;68.26
54666;BME280;40566;50.006;36.180;2023-04-19T21:38:02;99512.03;;;10.08;68.20
54666;BME280;40566;50.006;36.180;2023-04-19T21:43:03;99510.28;;;10.09;68.15
54666;BME280;40566;50.006;36.180;2023-04-19T21:48:04;99495.59;;;10.11;67.82
54666;BME280;40566;50.006;36.180;2023-04-19T21:53:05;99498.16;;;10.11;67.96
54666;BME280;40566;50.006;36.180;2023-04-19T21:58:05;99495.53;;;10.12;67.70
54666;BME280;40566;50.006;36.180;2023-04-19T22:03:06;99481.06;;;10.07;68.06
54666;BME280;40566;50.006;36.180;2023-04-19T22:08:06;99462.56;;;9.92;68.38
54666;BME280;40566;50.006;36.180;2023-04-19T22:13:07;99458.34;;;9.90;68.58
54666;BME280;40566;50.006;36.180;2023-04-19T22:18:08;99450.66;;;9.87;68.77
54666;BME280;40566;50.006;36.180;2023-04-19T22:23:08;99443.06;;;9.82;69.11
54666;BME280;40566;50.006;36.180;2023-04-19T22:28:09;99438.06;;;9.76;69.62
54666;BME280;40566;50.006;36.180;2023-04-19T22:33:10;99438.94;;;9.75;69.57
54666;BME280;40566;50.006;36.180;2023-04-19T22:38:10;99426.75;;;9.80;69.12
54666;BME280;40566;50.006;36.180;2023-04-19T22:43:11;99431.00;;;9.81;69.17
54666;BME280;40566;50.006;36.180;2023-04-19T22:48:13;99418.22;;;9.78;69.52
54666;BME280;40566;50.006;36.180;2023-04-19T22:53:13;99432.72;;;9.82;69.20
54666;BME280;40566;50.006;36.180;2023-04-19T22:58:14;99427.41;;;9.87;69.29
54666;BME280;40566;50.006;36.180;2023-04-19T23:03:14;99423.00;;;9.90;69.12
54666;BME280;40566;50.006;36.180;2023-04-19T23:08:15;99411.00;;;9.89;69.28
54666;BME280;40566;50.006;36.180;2023-04-19T23:13:16;99410.03;;;9.92;69.13
54666;BME280;40566;50.006;36.180;2023-04-19T23:18:17;99406.56;;;9.93;69.24
54666;BME280;40566;50.006;36.180;2023-04-19T23:23:18;99408.97;;;9.99;68.83
54666;BME280;40566;50.006;36.180;2023-04-19T23:28:20;99389.91;;;10.03;68.88
54666;BME280;40566;50.006;36.180;2023-04-19T23:33:21;99389.13;;;10.00;68.94
54666;BME280;40566;50.006;36.180;2023-04-19T23:38:21;99383.06;;;10.01;68.91
54666;BME280;40566;50.006;36.180;2023-04-19T23:43:22;99383.19;;;9.98;68.89
54666;BME280;40566;50.006;36.180;2023-04-19T23:48:23;99386.56;;;10.00;68.92
54666;BME280;40566;50.006;36.180;2023-04-19T23:53:23;99380.59;;;9.98;68.80
54666;BME280;40566;50.006;36.180;2023-04-19T23:58:24;99379.69;;;9.99;68.97
